createdAt,value
2022-12-24T00:01:39.554Z,13.57
2022-12-24T00:04:06.466Z,14.47
2022-12-24T00:06:32.863Z,11.10
2022-12-24T00:08:59.295Z,10.63
2022-12-24T00:11:25.812Z,8.87
2022-12-24T00:13:52.262Z,10.07
2022-12-24T00:16:18.718Z,10.40
2022-12-24T00:18:46.711Z,9.60
2022-12-24T00:21:14.775Z,10.07
2022-12-24T00:23:41.248Z,10.23
2022-12-24T00:26:07.763Z,10.13
2022-12-24T00:28:34.272Z,10.30
2022-12-24T00:31:00.717Z,9.93
2022-12-24T00:33:27.214Z,9.20
2022-12-24T00:35:54.647Z,8.00
2022-12-24T00:38:21.163Z,7.87
2022-12-24T00:40:47.671Z,8.37
2022-12-24T00:43:14.143Z,7.70
2022-12-24T00:45:40.708Z,8.03
2022-12-24T00:48:07.117Z,9.17
2022-12-24T00:50:33.671Z,10.43
2022-12-24T00:53:00.236Z,8.47
2022-12-24T00:55:26.746Z,8.77
2022-12-24T00:57:53.146Z,9.03
2022-12-24T01:00:19.918Z,8.37
2022-12-24T01:02:46.543Z,8.47
2022-12-24T01:05:13.414Z,8.07
2022-12-24T01:07:43.779Z,8.40
2022-12-24T01:10:15.840Z,8.40
2022-12-24T01:12:42.798Z,8.73
2022-12-24T01:15:10.442Z,13.73
2022-12-24T01:17:37.072Z,11.67
2022-12-24T01:20:05.677Z,7.60
2022-12-24T01:22:33.417Z,8.03
2022-12-24T01:24:59.915Z,7.73
2022-12-24T01:27:26.296Z,8.63
2022-12-24T01:29:52.697Z,8.40
2022-12-24T01:32:19.076Z,7.93
2022-12-24T01:34:45.612Z,7.90
2022-12-24T01:37:12.025Z,8.30
2022-12-24T01:39:38.530Z,8.63
2022-12-24T01:42:35.681Z,8.63
2022-12-24T01:45:33.947Z,7.73
2022-12-24T01:48:00.372Z,8.03
2022-12-24T01:50:26.836Z,7.90
2022-12-24T01:52:53.389Z,7.50
2022-12-24T01:55:20.276Z,8.80
2022-12-24T01:57:50.828Z,7.80
2022-12-24T02:00:17.800Z,7.57
2022-12-24T02:02:46.971Z,8.10
2022-12-24T02:05:27.771Z,9.00
2022-12-24T02:07:54.191Z,8.97
2022-12-24T02:10:20.789Z,8.10
2022-12-24T02:12:47.445Z,8.57
2022-12-24T02:15:15.399Z,9.00
2022-12-24T02:17:47.714Z,8.40
2022-12-24T02:20:38.965Z,7.57
2022-12-24T02:23:32.245Z,8.13
2022-12-24T02:26:28.082Z,7.13
2022-12-24T02:29:27.696Z,8.23
2022-12-24T02:32:00.276Z,7.67
2022-12-24T02:34:48.253Z,7.80
2022-12-24T02:37:22.782Z,7.43
2022-12-24T02:39:54.303Z,8.03
2022-12-24T02:42:24.445Z,8.17
2022-12-24T02:44:57.999Z,7.10
2022-12-24T02:47:26.964Z,7.23
2022-12-24T02:49:53.580Z,6.87
2022-12-24T02:52:33.586Z,7.47
2022-12-24T02:55:07.217Z,6.63
2022-12-24T02:57:45.704Z,6.57
2022-12-24T03:00:16.461Z,7.13
2022-12-24T03:03:13.883Z,7.07
2022-12-24T03:05:52.772Z,7.20
2022-12-24T03:08:29.561Z,6.03
2022-12-24T03:11:08.423Z,6.83
2022-12-24T03:13:34.990Z,6.90
2022-12-24T03:16:04.872Z,5.70
2022-12-24T03:18:31.538Z,5.90
2022-12-24T03:21:06.463Z,6.30
2022-12-24T03:23:34.065Z,6.37
2022-12-24T03:26:01.770Z,6.23
2022-12-24T03:28:28.626Z,5.40
2022-12-24T03:30:55.602Z,5.67
2022-12-24T03:33:22.008Z,5.77
2022-12-24T03:35:48.499Z,5.60
2022-12-24T03:38:15.117Z,5.23
2022-12-24T03:40:41.612Z,5.30
2022-12-24T03:43:07.999Z,5.60
2022-12-24T03:45:34.474Z,5.40
2022-12-24T03:48:01.016Z,5.53
2022-12-24T03:50:27.440Z,5.87
2022-12-24T03:52:55.042Z,5.17
2022-12-24T03:55:21.746Z,5.60
2022-12-24T03:57:48.491Z,5.50
2022-12-24T04:00:15.395Z,6.27
2022-12-24T04:02:42.085Z,5.40
2022-12-24T04:05:09.014Z,5.13
2022-12-24T04:07:35.666Z,5.80
2022-12-24T04:10:02.180Z,5.90
2022-12-24T04:12:28.566Z,5.70
2022-12-24T04:14:55.020Z,5.60
2022-12-24T04:17:21.430Z,5.93
2022-12-24T04:19:47.976Z,5.93
2022-12-24T04:22:14.492Z,5.77
2022-12-24T04:24:40.920Z,5.43
2022-12-24T04:27:07.354Z,5.87
2022-12-24T04:29:34.168Z,5.97
2022-12-24T04:32:00.646Z,5.80
2022-12-24T04:34:27.652Z,5.87
2022-12-24T04:36:54.190Z,6.57
2022-12-24T04:39:20.663Z,6.40
2022-12-24T04:41:47.179Z,6.07
2022-12-24T04:44:13.553Z,5.70
2022-12-24T04:46:41.250Z,6.70
2022-12-24T04:49:08.157Z,5.90
2022-12-24T04:51:34.959Z,5.97
2022-12-24T04:54:01.378Z,5.20
2022-12-24T04:56:30.710Z,8.23
2022-12-24T04:58:57.382Z,4.97
2022-12-24T05:01:26.649Z,5.00
2022-12-24T05:03:54.029Z,6.03
2022-12-24T05:06:26.415Z,5.20
2022-12-24T05:08:57.243Z,5.67
2022-12-24T05:11:24.055Z,7.37
2022-12-24T05:13:50.657Z,7.67
2022-12-24T05:16:18.388Z,9.43
2022-12-24T05:18:45.315Z,10.00
2022-12-24T05:21:15.165Z,11.33
2022-12-24T05:24:00.223Z,11.27
2022-12-24T05:26:37.137Z,13.40
2022-12-24T05:29:04.350Z,14.63
2022-12-24T05:31:33.308Z,14.93
2022-12-24T05:34:01.023Z,15.57
2022-12-24T05:36:27.742Z,16.67
2022-12-24T05:38:54.230Z,15.97
2022-12-24T05:41:20.702Z,15.27
2022-12-24T05:43:47.171Z,16.07
2022-12-24T05:46:17.426Z,15.90
2022-12-24T05:48:43.959Z,16.13
2022-12-24T05:51:11.904Z,15.90
2022-12-24T05:53:40.433Z,14.67
2022-12-24T05:56:09.265Z,15.93
2022-12-24T05:58:36.289Z,16.10
2022-12-24T06:01:03.783Z,15.03
2022-12-24T06:03:31.036Z,13.53
2022-12-24T06:06:08.558Z,12.93
2022-12-24T06:08:35.561Z,12.30
2022-12-24T06:11:03.941Z,12.47
2022-12-24T06:13:31.254Z,11.27
2022-12-24T06:15:59.022Z,10.30
2022-12-24T06:18:25.870Z,11.30
2022-12-24T06:20:53.677Z,11.00
2022-12-24T06:23:20.201Z,9.90
2022-12-24T06:25:48.430Z,10.03
2022-12-24T06:28:14.838Z,9.10
2022-12-24T06:30:41.623Z,9.00
2022-12-24T06:33:08.409Z,9.43
2022-12-24T06:35:34.883Z,8.30
2022-12-24T06:38:01.291Z,8.37
2022-12-24T06:40:28.027Z,7.50
2022-12-24T06:42:54.427Z,8.20
2022-12-24T06:45:20.969Z,7.50
2022-12-24T06:47:47.395Z,7.50
2022-12-24T06:50:13.924Z,7.63
2022-12-24T06:52:40.461Z,7.20
2022-12-24T06:55:07.507Z,7.00
2022-12-24T06:57:34.045Z,6.47
2022-12-24T07:00:00.533Z,6.60
2022-12-24T07:02:27.217Z,5.90
2022-12-24T07:04:53.729Z,6.93
2022-12-24T07:07:20.162Z,6.30
2022-12-24T07:09:46.566Z,6.00
2022-12-24T07:12:13.028Z,5.43
2022-12-24T07:14:39.484Z,5.73
2022-12-24T07:17:06.156Z,6.57
2022-12-24T07:19:32.634Z,5.90
2022-12-24T07:21:59.095Z,5.60
2022-12-24T07:24:25.595Z,5.47
2022-12-24T07:26:51.999Z,4.80
2022-12-24T07:29:18.502Z,5.80
2022-12-24T07:31:44.969Z,5.63
2022-12-24T07:34:11.414Z,5.00
2022-12-24T07:36:38.014Z,5.87
2022-12-24T07:39:04.631Z,4.60
2022-12-24T07:41:33.830Z,4.97
2022-12-24T07:44:02.872Z,4.87
2022-12-24T07:46:29.324Z,4.67
2022-12-24T07:48:55.768Z,5.37
2022-12-24T07:51:22.215Z,5.00
2022-12-24T07:53:48.695Z,5.10
2022-12-24T07:56:15.922Z,4.43
2022-12-24T07:58:42.573Z,4.43
2022-12-24T08:01:09.574Z,5.40
2022-12-24T08:03:36.160Z,5.30
2022-12-24T08:06:02.841Z,5.37
2022-12-24T08:08:29.383Z,5.20
2022-12-24T08:11:01.072Z,4.63
2022-12-24T08:13:27.545Z,5.33
2022-12-24T08:15:54.001Z,5.70
2022-12-24T08:18:20.549Z,5.37
2022-12-24T08:20:47.470Z,6.07
2022-12-24T08:23:14.325Z,5.37
2022-12-24T08:25:47.738Z,5.63
2022-12-24T08:28:16.265Z,5.43
2022-12-24T08:30:42.809Z,6.13
2022-12-24T08:33:09.556Z,5.07
2022-12-24T08:35:36.171Z,5.23
2022-12-24T08:38:02.801Z,7.13
2022-12-24T08:40:29.307Z,5.40
2022-12-24T08:42:55.814Z,5.97
2022-12-24T08:45:22.359Z,5.87
2022-12-24T08:47:48.842Z,5.37
2022-12-24T08:50:15.579Z,6.33
2022-12-24T08:52:42.007Z,6.47
2022-12-24T08:55:08.737Z,6.30
2022-12-24T08:57:37.148Z,5.93
2022-12-24T09:00:06.139Z,7.03
2022-12-24T09:02:32.796Z,8.20
2022-12-24T09:04:59.501Z,8.13
2022-12-24T09:07:25.990Z,8.43
2022-12-24T09:09:52.384Z,7.97
2022-12-24T09:12:18.808Z,8.13
2022-12-24T09:14:45.294Z,8.07
2022-12-24T09:17:11.842Z,9.53
2022-12-24T09:19:38.440Z,8.70
2022-12-24T09:22:05.058Z,7.43
2022-12-24T09:24:32.329Z,8.47
2022-12-24T09:26:59.331Z,8.60
2022-12-24T09:29:25.854Z,9.47
2022-12-24T09:31:52.394Z,8.50
2022-12-24T09:34:19.007Z,10.30
2022-12-24T09:36:46.395Z,9.63
2022-12-24T09:39:13.018Z,9.77
2022-12-24T09:41:54.596Z,9.53
2022-12-24T09:44:27.977Z,11.63
2022-12-24T09:46:55.054Z,9.70
2022-12-24T09:49:25.054Z,8.47
2022-12-24T09:51:55.892Z,8.17
2022-12-24T09:54:28.988Z,8.97
2022-12-24T09:56:57.302Z,7.67
2022-12-24T09:59:28.727Z,7.87
2022-12-24T10:01:55.485Z,7.70
2022-12-24T10:04:26.667Z,7.50
2022-12-24T10:07:15.120Z,6.67
2022-12-24T10:09:47.926Z,6.93
2022-12-24T10:12:25.133Z,6.80
2022-12-24T10:15:16.472Z,6.10
2022-12-24T10:18:05.334Z,7.20
2022-12-24T10:20:37.129Z,5.80
2022-12-24T10:23:16.708Z,6.23
2022-12-24T10:26:04.695Z,6.23
2022-12-24T10:28:36.448Z,6.20
2022-12-24T10:31:04.656Z,6.07
2022-12-24T10:33:42.410Z,6.23
2022-12-24T10:36:17.676Z,7.03
2022-12-24T10:38:45.331Z,6.60
2022-12-24T10:41:12.880Z,6.10
2022-12-24T10:43:40.176Z,6.40
2022-12-24T10:46:14.262Z,6.13
2022-12-24T10:48:48.464Z,5.83
2022-12-24T10:51:38.063Z,5.83
2022-12-24T10:54:13.579Z,6.87
2022-12-24T10:56:42.192Z,6.33
2022-12-24T10:59:23.557Z,6.03
2022-12-24T11:01:50.206Z,6.47
2022-12-24T11:04:57.626Z,6.17
2022-12-24T11:07:24.097Z,6.13
2022-12-24T11:10:02.786Z,5.80
2022-12-24T11:12:38.075Z,6.40
2022-12-24T11:15:07.092Z,6.10
2022-12-24T11:17:34.306Z,6.30
2022-12-24T11:20:03.381Z,6.23
2022-12-24T11:22:31.520Z,7.27
2022-12-24T11:24:59.083Z,6.73
2022-12-24T11:27:32.261Z,5.93
2022-12-24T11:30:31.794Z,5.93
2022-12-24T11:33:01.292Z,6.37
2022-12-24T11:35:29.666Z,6.20
2022-12-24T11:38:02.184Z,6.00
2022-12-24T11:40:38.852Z,7.37
2022-12-24T11:43:11.098Z,6.87
2022-12-24T11:45:56.960Z,6.97
2022-12-24T11:48:30.040Z,6.87
2022-12-24T11:51:07.622Z,6.83
2022-12-24T11:53:59.448Z,6.93
2022-12-24T11:56:31.091Z,6.40
2022-12-24T11:59:02.774Z,7.60
2022-12-24T12:01:38.898Z,6.43
2022-12-24T12:04:11.768Z,7.57
2022-12-24T12:06:43.123Z,7.10
2022-12-24T12:09:15.575Z,8.07
2022-12-24T12:11:44.343Z,8.67
2022-12-24T12:14:20.749Z,7.77
2022-12-24T12:17:03.731Z,8.27
2022-12-24T12:19:34.503Z,7.27
2022-12-24T12:22:03.889Z,8.13
2022-12-24T12:24:36.982Z,8.60
2022-12-24T12:27:08.987Z,7.73
2022-12-24T12:29:43.362Z,7.73
2022-12-24T12:32:21.800Z,9.10
2022-12-24T12:35:01.463Z,8.40
2022-12-24T12:37:32.917Z,9.30
2022-12-24T12:39:59.429Z,8.50
2022-12-24T12:42:37.489Z,8.97
2022-12-24T12:45:29.310Z,9.23
2022-12-24T12:48:08.637Z,8.53
2022-12-24T12:50:46.290Z,9.27
2022-12-24T12:53:36.240Z,8.33
2022-12-24T12:56:23.956Z,8.43
2022-12-24T12:59:11.534Z,8.93
2022-12-24T13:02:09.573Z,8.03
2022-12-24T13:05:01.128Z,8.33
2022-12-24T13:07:47.565Z,7.13
2022-12-24T13:10:38.596Z,7.67
2022-12-24T13:13:20.075Z,6.97
2022-12-24T13:16:02.670Z,7.13
2022-12-24T13:18:49.855Z,6.20
2022-12-24T13:21:18.743Z,6.30
2022-12-24T13:23:45.197Z,5.30
2022-12-24T13:26:13.552Z,5.57
2022-12-24T13:28:40.347Z,5.90
2022-12-24T13:31:19.869Z,4.83
2022-12-24T13:33:49.121Z,5.00
2022-12-24T13:36:17.666Z,5.03
2022-12-24T13:38:54.022Z,4.83
2022-12-24T13:41:39.931Z,4.87
2022-12-24T13:44:07.381Z,5.90
2022-12-24T13:46:48.353Z,5.30
2022-12-24T13:49:29.187Z,4.57
2022-12-24T13:52:11.694Z,4.70
2022-12-24T13:54:56.840Z,5.50
2022-12-24T13:57:28.935Z,4.50
2022-12-24T14:00:12.701Z,4.23
2022-12-24T14:02:47.453Z,4.57
2022-12-24T14:05:25.443Z,4.60
2022-12-24T14:07:52.820Z,3.87
2022-12-24T14:10:24.816Z,4.20
2022-12-24T14:12:53.039Z,4.33
2022-12-24T14:15:45.444Z,4.37
2022-12-24T14:18:18.502Z,3.87
2022-12-24T14:20:49.327Z,3.40
2022-12-24T14:23:28.801Z,4.37
2022-12-24T14:25:57.263Z,3.83
2022-12-24T14:28:31.015Z,4.40
2022-12-24T14:31:02.212Z,4.23
2022-12-24T14:33:33.807Z,3.47
2022-12-24T14:36:01.244Z,3.60
2022-12-24T14:38:28.186Z,4.83
2022-12-24T14:41:16.468Z,4.03
2022-12-24T14:44:00.821Z,4.27
2022-12-24T14:46:30.146Z,3.60
2022-12-24T14:49:05.116Z,4.00
2022-12-24T14:51:38.740Z,4.07
2022-12-24T14:54:39.178Z,4.93
2022-12-24T14:57:19.966Z,5.23
2022-12-24T14:59:47.671Z,4.87
2022-12-24T15:02:29.421Z,5.07
2022-12-24T15:05:11.512Z,5.50
2022-12-24T15:07:47.842Z,4.73
2022-12-24T15:10:24.532Z,4.10
2022-12-24T15:12:52.013Z,4.73
2022-12-24T15:15:19.620Z,4.43
2022-12-24T15:17:46.278Z,4.97
2022-12-24T15:20:17.172Z,5.33
2022-12-24T15:22:44.442Z,4.33
2022-12-24T15:25:23.632Z,4.90
2022-12-24T15:27:50.261Z,4.40
2022-12-24T15:30:20.877Z,4.77
2022-12-24T15:32:47.618Z,4.97
2022-12-24T15:35:55.861Z,5.60
2022-12-24T15:38:32.128Z,4.93
2022-12-24T15:41:00.894Z,5.33
2022-12-24T15:43:27.415Z,5.80
2022-12-24T15:45:54.246Z,5.30
2022-12-24T15:48:26.604Z,4.97
2022-12-24T15:50:55.235Z,6.10
2022-12-24T15:53:28.869Z,5.77
2022-12-24T15:56:10.417Z,4.87
2022-12-24T15:58:44.455Z,4.57
2022-12-24T16:01:14.063Z,4.80
2022-12-24T16:03:49.854Z,4.47
2022-12-24T16:06:17.165Z,4.60
2022-12-24T16:08:44.411Z,4.40
2022-12-24T16:11:20.857Z,3.97
2022-12-24T16:13:50.389Z,4.77
2022-12-24T16:16:20.761Z,4.83
2022-12-24T16:18:57.245Z,3.80
2022-12-24T16:21:30.597Z,3.93
2022-12-24T16:24:04.598Z,4.30
2022-12-24T16:26:31.061Z,4.57
2022-12-24T16:28:57.564Z,4.80
2022-12-24T16:31:36.306Z,4.30
2022-12-24T16:34:05.626Z,5.23
2022-12-24T16:36:32.635Z,5.17
2022-12-24T16:39:17.773Z,5.17
2022-12-24T16:42:02.951Z,4.43
2022-12-24T16:44:29.423Z,4.60
2022-12-24T16:46:56.237Z,5.27
2022-12-24T16:49:22.957Z,5.10
2022-12-24T16:51:49.530Z,4.20
2022-12-24T16:54:16.304Z,4.63
2022-12-24T16:56:43.578Z,4.87
2022-12-24T16:59:18.236Z,4.33
2022-12-24T17:01:45.386Z,5.73
2022-12-24T17:04:12.868Z,4.77
2022-12-24T17:06:39.363Z,4.50
2022-12-24T17:09:05.998Z,5.27
2022-12-24T17:11:32.433Z,4.33
2022-12-24T17:14:01.963Z,5.03
2022-12-24T17:16:32.196Z,4.63
2022-12-24T17:18:58.679Z,5.20
2022-12-24T17:21:25.128Z,5.43
2022-12-24T17:23:51.647Z,5.03
2022-12-24T17:26:18.179Z,5.90
2022-12-24T17:28:44.706Z,4.83
2022-12-24T17:31:13.702Z,4.67
2022-12-24T17:33:40.105Z,4.10
2022-12-24T17:36:06.909Z,4.47
2022-12-24T17:38:33.343Z,4.80
2022-12-24T17:41:01.694Z,4.83
2022-12-24T17:43:28.414Z,4.53
2022-12-24T17:45:54.950Z,4.77
2022-12-24T17:48:21.528Z,4.43
2022-12-24T17:50:48.128Z,3.77
2022-12-24T17:53:14.753Z,3.83
2022-12-24T17:55:44.583Z,4.07
2022-12-24T17:58:11.576Z,3.80
2022-12-24T18:00:38.387Z,4.50
2022-12-24T18:03:05.137Z,4.07
2022-12-24T18:05:34.107Z,3.73
2022-12-24T18:08:00.648Z,3.63
2022-12-24T18:10:27.080Z,4.40
2022-12-24T18:12:53.513Z,3.33
2022-12-24T18:15:21.511Z,3.90
2022-12-24T18:17:55.535Z,3.83
2022-12-24T18:20:22.345Z,3.57
2022-12-24T18:22:49.235Z,4.40
2022-12-24T18:25:15.784Z,4.33
2022-12-24T18:27:42.210Z,3.67
2022-12-24T18:30:09.698Z,3.80
2022-12-24T18:32:36.170Z,3.87
2022-12-24T18:35:02.765Z,3.73
2022-12-24T18:37:29.212Z,3.67
2022-12-24T18:39:55.608Z,3.63
2022-12-24T18:42:22.007Z,3.70
2022-12-24T18:44:48.497Z,3.67
2022-12-24T18:47:15.232Z,3.93
2022-12-24T18:49:41.677Z,4.20
2022-12-24T18:52:10.052Z,4.03
2022-12-24T18:54:37.766Z,3.83
2022-12-24T18:57:04.326Z,5.33
2022-12-24T18:59:30.824Z,4.20
2022-12-24T19:01:57.582Z,4.30
2022-12-24T19:04:24.199Z,5.00
2022-12-24T19:06:53.599Z,5.93
2022-12-24T19:09:20.804Z,4.37
2022-12-24T19:11:47.244Z,5.63
2022-12-24T19:14:13.732Z,4.40
2022-12-24T19:16:40.835Z,4.77
2022-12-24T19:19:09.198Z,4.90
2022-12-24T19:21:35.877Z,4.97
2022-12-24T19:24:02.379Z,4.40
2022-12-24T19:26:28.948Z,4.40
2022-12-24T19:28:55.606Z,4.27
2022-12-24T19:31:24.569Z,4.70
2022-12-24T19:33:54.049Z,4.63
2022-12-24T19:36:25.470Z,4.43
2022-12-24T19:38:51.884Z,4.10
2022-12-24T19:41:26.776Z,4.83
2022-12-24T19:43:55.791Z,5.37
2022-12-24T19:46:28.352Z,4.37
2022-12-24T19:48:57.663Z,4.50
2022-12-24T19:51:25.231Z,4.90
2022-12-24T19:53:52.516Z,5.03
2022-12-24T19:56:20.642Z,5.13
2022-12-24T19:58:47.478Z,5.10
2022-12-24T20:01:16.737Z,5.70
2022-12-24T20:03:45.480Z,5.57
2022-12-24T20:06:13.047Z,5.40
2022-12-24T20:08:39.819Z,5.03
2022-12-24T20:11:08.159Z,5.17
2022-12-24T20:13:35.412Z,5.57
2022-12-24T20:16:19.706Z,5.07
2022-12-24T20:18:54.100Z,5.77
2022-12-24T20:21:21.223Z,5.10
2022-12-24T20:23:48.210Z,5.27
2022-12-24T20:26:16.246Z,5.17
2022-12-24T20:28:42.806Z,5.30
2022-12-24T20:31:29.932Z,5.67
2022-12-24T20:33:57.296Z,5.70
2022-12-24T20:36:24.382Z,5.83
2022-12-24T20:38:51.095Z,5.90
2022-12-24T20:41:19.654Z,6.33
2022-12-24T20:43:48.609Z,6.07
2022-12-24T20:46:20.123Z,6.87
2022-12-24T20:48:46.952Z,7.63
2022-12-24T20:51:23.389Z,7.10
2022-12-24T20:53:55.583Z,7.30
2022-12-24T20:56:22.613Z,7.10
2022-12-24T20:58:49.335Z,7.73
2022-12-24T21:01:18.922Z,8.77
2022-12-24T21:03:45.597Z,7.63
2022-12-24T21:06:12.798Z,8.30
2022-12-24T21:08:39.293Z,8.13
2022-12-24T21:11:24.421Z,7.40
2022-12-24T21:13:51.039Z,7.43
2022-12-24T21:16:17.467Z,7.47
2022-12-24T21:18:43.922Z,8.13
2022-12-24T21:21:10.303Z,7.67
2022-12-24T21:23:36.726Z,8.23
2022-12-24T21:26:04.524Z,8.23
2022-12-24T21:28:31.499Z,8.50
2022-12-24T21:30:58.029Z,8.43
2022-12-24T21:33:24.487Z,9.13
2022-12-24T21:35:57.297Z,8.37
2022-12-24T21:38:23.779Z,10.00
2022-12-24T21:41:05.686Z,9.77
2022-12-24T21:43:33.707Z,8.57
2022-12-24T21:46:00.595Z,10.27
2022-12-24T21:48:45.705Z,8.03
2022-12-24T21:51:12.115Z,8.50
2022-12-24T21:53:57.179Z,8.70
2022-12-24T21:56:23.713Z,11.10
2022-12-24T21:58:51.117Z,9.00
2022-12-24T22:01:17.752Z,10.40
2022-12-24T22:03:44.828Z,9.27
2022-12-24T22:06:31.518Z,8.93
2022-12-24T22:09:16.787Z,9.87
2022-12-24T22:11:54.370Z,9.23
2022-12-24T22:14:21.339Z,9.10
2022-12-24T22:16:48.013Z,8.93
2022-12-24T22:19:14.603Z,10.13
2022-12-24T22:21:41.027Z,9.73
2022-12-24T22:24:08.021Z,10.63
2022-12-24T22:26:34.476Z,10.37
2022-12-24T22:29:00.910Z,9.80
2022-12-24T22:31:27.368Z,9.90
2022-12-24T22:33:53.963Z,10.87
2022-12-24T22:36:20.363Z,10.00
2022-12-24T22:38:46.787Z,10.00
2022-12-24T22:41:14.119Z,9.37
2022-12-24T22:43:41.488Z,9.20
2022-12-24T22:46:14.293Z,8.90
2022-12-24T22:48:42.315Z,11.50
2022-12-24T22:51:14.420Z,10.47
2022-12-24T22:53:41.348Z,12.57
2022-12-24T22:56:08.652Z,10.97
2022-12-24T22:58:36.517Z,10.70
2022-12-24T23:01:03.052Z,10.60
2022-12-24T23:03:29.678Z,9.60
2022-12-24T23:06:03.783Z,9.90
2022-12-24T23:08:31.408Z,10.77
2022-12-24T23:11:12.726Z,13.70
2022-12-24T23:13:59.700Z,11.50
2022-12-24T23:16:27.756Z,10.63
2022-12-24T23:18:54.884Z,11.27
2022-12-24T23:21:21.316Z,11.60
2022-12-24T23:23:47.919Z,11.17
2022-12-24T23:26:16.580Z,10.90
2022-12-24T23:28:43.546Z,11.37
2022-12-24T23:31:10.521Z,10.13
2022-12-24T23:33:37.359Z,9.77
2022-12-24T23:36:04.214Z,11.27
2022-12-24T23:38:30.663Z,10.73
2022-12-24T23:41:01.422Z,11.33
2022-12-24T23:43:28.058Z,11.37
2022-12-24T23:45:54.810Z,10.77
2022-12-24T23:48:22.363Z,10.57
2022-12-24T23:50:48.858Z,9.63
2022-12-24T23:53:16.681Z,10.03
2022-12-24T23:55:43.455Z,8.87
2022-12-24T23:58:11.033Z,10.90
